sensor_id;sensor_type;location;lat;lon;timestamp;P1;P2;P0
65556;PMS3003;52200;53.490;14.376;2023-05-23T00:00:59;18.75;15.00;10.75
65556;PMS3003;52200;53.490;14.376;2023-05-23T00:03:25;23.75;17.50;11.75
65556;PMS3003;52200;53.490;14.376;2023-05-23T00:05:51;20.20;17.00;11.00
65556;PMS3003;52200;53.490;14.376;2023-05-23T00:08:16;24.00;17.75;11.50
65556;PMS3003;52200;53.490;14.376;2023-05-23T00:10:42;25.00;20.00;12.25
65556;PMS3003;52200;53.490;14.376;2023-05-23T00:13:08;23.60;19.60;12.80
65556;PMS3003;52200;53.490;14.376;2023-05-23T00:15:36;23.00;16.80;11.80
65556;PMS3003;52200;53.490;14.376;2023-05-23T00:18:02;22.60;18.40;12.00
65556;PMS3003;52200;53.490;14.376;2023-05-23T00:20:28;20.00;16.80;10.00
65556;PMS3003;52200;53.490;14.376;2023-05-23T00:22:54;19.80;16.60;12.00
65556;PMS3003;52200;53.490;14.376;2023-05-23T00:25:23;20.80;16.20;11.60
65556;PMS3003;52200;53.490;14.376;2023-05-23T00:27:49;22.60;17.60;11.80
65556;PMS3003;52200;53.490;14.376;2023-05-23T00:30:14;20.00;15.40;11.20
65556;PMS3003;52200;53.490;14.376;2023-05-23T00:32:40;19.20;16.00;11.20
65556;PMS3003;52200;53.490;14.376;2023-05-23T00:35:06;22.50;17.75;12.00
65556;PMS3003;52200;53.490;14.376;2023-05-23T00:37:32;23.20;17.40;11.60
65556;PMS3003;52200;53.490;14.376;2023-05-23T00:39:58;19.00;15.75;10.00
65556;PMS3003;52200;53.490;14.376;2023-05-23T00:42:24;21.80;16.80;10.80
65556;PMS3003;52200;53.490;14.376;2023-05-23T00:44:49;22.00;17.00;11.25
65556;PMS3003;52200;53.490;14.376;2023-05-23T00:47:15;20.00;16.25;11.50
65556;PMS3003;52200;53.490;14.376;2023-05-23T00:49:41;24.00;18.00;13.40
65556;PMS3003;52200;53.490;14.376;2023-05-23T00:52:07;22.20;17.40;10.80
65556;PMS3003;52200;53.490;14.376;2023-05-23T00:54:32;22.50;18.00;12.50
65556;PMS3003;52200;53.490;14.376;2023-05-23T00:57:00;19.40;16.40;12.00
65556;PMS3003;52200;53.490;14.376;2023-05-23T00:59:26;23.75;18.25;12.00
65556;PMS3003;52200;53.490;14.376;2023-05-23T01:01:52;20.80;16.00;11.00
65556;PMS3003;52200;53.490;14.376;2023-05-23T01:04:19;23.80;16.40;12.00
65556;PMS3003;52200;53.490;14.376;2023-05-23T01:06:45;21.00;16.00;12.20
65556;PMS3003;52200;53.490;14.376;2023-05-23T01:09:13;23.80;19.00;11.20
65556;PMS3003;52200;53.490;14.376;2023-05-23T01:14:41;22.00;17.20;12.00
65556;PMS3003;52200;53.490;14.376;2023-05-23T01:17:38;21.40;17.20;11.40
65556;PMS3003;52200;53.490;14.376;2023-05-23T01:20:15;23.20;17.00;12.00
65556;PMS3003;52200;53.490;14.376;2023-05-23T01:23:02;21.60;17.20;12.20
65556;PMS3003;52200;53.490;14.376;2023-05-23T01:28:31;20.80;16.00;11.60
65556;PMS3003;52200;53.490;14.376;2023-05-23T01:31:02;22.80;18.00;12.20
65556;PMS3003;52200;53.490;14.376;2023-05-23T01:33:30;21.80;17.40;12.00
65556;PMS3003;52200;53.490;14.376;2023-05-23T01:35:57;23.60;16.80;12.00
65556;PMS3003;52200;53.490;14.376;2023-05-23T01:38:26;20.80;16.80;12.00
65556;PMS3003;52200;53.490;14.376;2023-05-23T01:40:52;20.00;15.00;11.00
65556;PMS3003;52200;53.490;14.376;2023-05-23T01:43:18;21.80;18.00;11.00
65556;PMS3003;52200;53.490;14.376;2023-05-23T01:45:44;26.40;17.00;11.40
65556;PMS3003;52200;53.490;14.376;2023-05-23T01:48:10;23.40;18.20;12.20
65556;PMS3003;52200;53.490;14.376;2023-05-23T01:50:39;25.00;21.60;13.00
65556;PMS3003;52200;53.490;14.376;2023-05-23T01:53:05;24.60;17.60;12.00
65556;PMS3003;52200;53.490;14.376;2023-05-23T01:55:32;23.40;17.00;11.00
65556;PMS3003;52200;53.490;14.376;2023-05-23T01:57:58;22.00;17.20;12.40
65556;PMS3003;52200;53.490;14.376;2023-05-23T02:00:25;22.60;19.40;11.60
65556;PMS3003;52200;53.490;14.376;2023-05-23T02:02:51;22.50;18.75;13.00
65556;PMS3003;52200;53.490;14.376;2023-05-23T02:05:16;19.50;15.00;12.00
65556;PMS3003;52200;53.490;14.376;2023-05-23T02:07:42;22.00;17.00;12.00
65556;PMS3003;52200;53.490;14.376;2023-05-23T02:10:07;27.50;21.75;13.00
65556;PMS3003;52200;53.490;14.376;2023-05-23T02:12:33;21.20;17.60;13.00
65556;PMS3003;52200;53.490;14.376;2023-05-23T02:14:59;23.25;18.00;13.00
65556;PMS3003;52200;53.490;14.376;2023-05-23T02:17:24;24.50;18.00;11.50
65556;PMS3003;52200;53.490;14.376;2023-05-23T02:19:50;24.00;18.50;13.00
65556;PMS3003;52200;53.490;14.376;2023-05-23T02:22:16;23.00;19.75;12.25
65556;PMS3003;52200;53.490;14.376;2023-05-23T02:24:41;23.50;20.00;12.00
65556;PMS3003;52200;53.490;14.376;2023-05-23T02:27:06;23.00;19.50;12.50
65556;PMS3003;52200;53.490;14.376;2023-05-23T02:29:32;22.75;18.00;11.25
65556;PMS3003;52200;53.490;14.376;2023-05-23T02:31:58;23.00;18.80;12.80
65556;PMS3003;52200;53.490;14.376;2023-05-23T02:34:23;23.25;20.00;13.50
65556;PMS3003;52200;53.490;14.376;2023-05-23T02:36:49;25.20;21.40;15.00
65556;PMS3003;52200;53.490;14.376;2023-05-23T02:39:15;26.60;21.20;14.40
65556;PMS3003;52200;53.490;14.376;2023-05-23T02:41:41;28.50;22.25;15.00
65556;PMS3003;52200;53.490;14.376;2023-05-23T02:44:06;27.25;22.00;15.00
65556;PMS3003;52200;53.490;14.376;2023-05-23T02:46:32;23.25;20.00;14.50
65556;PMS3003;52200;53.490;14.376;2023-05-23T02:48:57;26.25;20.75;13.50
65556;PMS3003;52200;53.490;14.376;2023-05-23T02:51:23;23.75;20.00;14.75
65556;PMS3003;52200;53.490;14.376;2023-05-23T02:53:48;25.50;22.00;14.50
65556;PMS3003;52200;53.490;14.376;2023-05-23T02:56:13;27.00;22.25;14.50
65556;PMS3003;52200;53.490;14.376;2023-05-23T02:58:39;24.40;20.20;13.80
65556;PMS3003;52200;53.490;14.376;2023-05-23T03:01:05;28.25;23.50;15.50
65556;PMS3003;52200;53.490;14.376;2023-05-23T03:03:32;28.80;24.00;15.20
65556;PMS3003;52200;53.490;14.376;2023-05-23T03:05:57;27.25;22.00;14.25
65556;PMS3003;52200;53.490;14.376;2023-05-23T03:08:23;25.00;21.75;14.75
65556;PMS3003;52200;53.490;14.376;2023-05-23T03:10:48;29.50;24.75;16.50
65556;PMS3003;52200;53.490;14.376;2023-05-23T03:13:14;28.60;23.00;14.40
65556;PMS3003;52200;53.490;14.376;2023-05-23T03:15:40;29.50;22.75;15.75
65556;PMS3003;52200;53.490;14.376;2023-05-23T03:18:06;28.25;23.25;15.50
65556;PMS3003;52200;53.490;14.376;2023-05-23T03:20:31;27.50;21.75;14.00
65556;PMS3003;52200;53.490;14.376;2023-05-23T03:22:57;26.25;22.50;15.00
65556;PMS3003;52200;53.490;14.376;2023-05-23T03:25:22;29.00;24.00;15.50
65556;PMS3003;52200;53.490;14.376;2023-05-23T03:27:47;26.50;22.25;15.00
65556;PMS3003;52200;53.490;14.376;2023-05-23T03:30:13;27.00;22.00;14.75
65556;PMS3003;52200;53.490;14.376;2023-05-23T03:32:38;32.50;26.50;15.25
65556;PMS3003;52200;53.490;14.376;2023-05-23T03:35:04;28.25;25.00;16.00
65556;PMS3003;52200;53.490;14.376;2023-05-23T03:37:30;27.60;22.20;14.60
65556;PMS3003;52200;53.490;14.376;2023-05-23T03:39:55;26.00;21.75;15.00
65556;PMS3003;52200;53.490;14.376;2023-05-23T03:42:20;26.75;21.75;14.25
65556;PMS3003;52200;53.490;14.376;2023-05-23T03:44:46;28.00;20.75;15.00
65556;PMS3003;52200;53.490;14.376;2023-05-23T03:47:11;25.25;21.00;14.25
65556;PMS3003;52200;53.490;14.376;2023-05-23T03:49:37;28.75;22.75;16.00
65556;PMS3003;52200;53.490;14.376;2023-05-23T03:52:02;26.75;22.75;14.00
65556;PMS3003;52200;53.490;14.376;2023-05-23T03:54:28;26.25;22.75;16.00
65556;PMS3003;52200;53.490;14.376;2023-05-23T03:56:56;25.25;19.50;14.00
65556;PMS3003;52200;53.490;14.376;2023-05-23T03:59:22;23.60;19.20;13.60
65556;PMS3003;52200;53.490;14.376;2023-05-23T04:01:47;20.75;16.50;10.00
65556;PMS3003;52200;53.490;14.376;2023-05-23T04:04:13;21.25;17.75;13.00
65556;PMS3003;52200;53.490;14.376;2023-05-23T04:06:38;23.75;17.75;9.25
65556;PMS3003;52200;53.490;14.376;2023-05-23T04:09:04;22.50;18.00;12.75
65556;PMS3003;52200;53.490;14.376;2023-05-23T04:11:30;23.80;19.00;12.00
65556;PMS3003;52200;53.490;14.376;2023-05-23T04:13:56;21.40;16.60;10.60
65556;PMS3003;52200;53.490;14.376;2023-05-23T04:16:22;19.60;16.60;11.00
65556;PMS3003;52200;53.490;14.376;2023-05-23T04:18:48;23.20;18.40;11.40
65556;PMS3003;52200;53.490;14.376;2023-05-23T04:21:14;19.80;16.20;11.60
65556;PMS3003;52200;53.490;14.376;2023-05-23T04:23:39;22.50;19.00;11.00
65556;PMS3003;52200;53.490;14.376;2023-05-23T04:26:05;18.00;13.75;11.00
65556;PMS3003;52200;53.490;14.376;2023-05-23T04:28:30;23.00;18.50;9.00
65556;PMS3003;52200;53.490;14.376;2023-05-23T04:30:56;20.50;17.50;11.00
65556;PMS3003;52200;53.490;14.376;2023-05-23T04:33:22;23.60;16.20;11.00
65556;PMS3003;52200;53.490;14.376;2023-05-23T04:35:48;28.60;19.00;10.80
65556;PMS3003;52200;53.490;14.376;2023-05-23T04:38:14;20.00;15.00;12.00
65556;PMS3003;52200;53.490;14.376;2023-05-23T04:40:39;22.50;18.50;11.50
65556;PMS3003;52200;53.490;14.376;2023-05-23T04:43:05;21.60;17.80;11.80
65556;PMS3003;52200;53.490;14.376;2023-05-23T04:45:33;23.00;19.60;13.20
65556;PMS3003;52200;53.490;14.376;2023-05-23T04:47:58;20.75;17.25;10.00
65556;PMS3003;52200;53.490;14.376;2023-05-23T04:50:24;19.50;15.25;10.75
65556;PMS3003;52200;53.490;14.376;2023-05-23T04:52:49;21.00;15.00;11.00
65556;PMS3003;52200;53.490;14.376;2023-05-23T04:55:15;18.75;15.00;11.00
65556;PMS3003;52200;53.490;14.376;2023-05-23T04:57:40;20.25;17.00;12.25
65556;PMS3003;52200;53.490;14.376;2023-05-23T05:00:06;20.25;17.00;11.50
65556;PMS3003;52200;53.490;14.376;2023-05-23T05:02:35;19.00;15.00;11.00
65556;PMS3003;52200;53.490;14.376;2023-05-23T05:05:01;22.40;17.40;11.00
65556;PMS3003;52200;53.490;14.376;2023-05-23T05:07:28;20.20;15.40;11.60
65556;PMS3003;52200;53.490;14.376;2023-05-23T05:09:54;23.60;16.60;11.00
65556;PMS3003;52200;53.490;14.376;2023-05-23T05:12:19;21.00;16.25;11.00
65556;PMS3003;52200;53.490;14.376;2023-05-23T05:14:45;22.00;16.75;11.75
65556;PMS3003;52200;53.490;14.376;2023-05-23T05:17:10;21.25;18.00;12.25
65556;PMS3003;52200;53.490;14.376;2023-05-23T05:19:36;21.80;16.40;12.60
65556;PMS3003;52200;53.490;14.376;2023-05-23T05:22:02;21.75;16.00;11.00
65556;PMS3003;52200;53.490;14.376;2023-05-23T05:24:27;21.25;16.50;11.50
65556;PMS3003;52200;53.490;14.376;2023-05-23T05:26:53;24.00;17.40;12.00
65556;PMS3003;52200;53.490;14.376;2023-05-23T05:29:19;21.60;17.60;12.00
65556;PMS3003;52200;53.490;14.376;2023-05-23T05:31:45;21.50;17.50;11.50
65556;PMS3003;52200;53.490;14.376;2023-05-23T05:34:11;19.75;16.25;12.00
65556;PMS3003;52200;53.490;14.376;2023-05-23T05:36:37;18.80;15.20;11.20
65556;PMS3003;52200;53.490;14.376;2023-05-23T05:39:03;21.00;16.80;13.20
65556;PMS3003;52200;53.490;14.376;2023-05-23T05:41:28;21.50;17.25;12.50
65556;PMS3003;52200;53.490;14.376;2023-05-23T05:43:53;21.50;17.25;11.00
65556;PMS3003;52200;53.490;14.376;2023-05-23T05:46:19;23.25;18.25;11.25
65556;PMS3003;52200;53.490;14.376;2023-05-23T05:48:45;21.00;16.75;11.75
65556;PMS3003;52200;53.490;14.376;2023-05-23T05:51:11;24.60;18.60;12.60
65556;PMS3003;52200;53.490;14.376;2023-05-23T05:53:36;23.25;17.75;11.50
65556;PMS3003;52200;53.490;14.376;2023-05-23T05:56:02;20.50;16.75;12.00
65556;PMS3003;52200;53.490;14.376;2023-05-23T05:58:27;21.75;16.50;10.50
65556;PMS3003;52200;53.490;14.376;2023-05-23T06:00:53;23.75;18.75;12.75
65556;PMS3003;52200;53.490;14.376;2023-05-23T06:03:18;20.25;17.00;11.00
65556;PMS3003;52200;53.490;14.376;2023-05-23T06:05:44;22.50;18.00;12.00
65556;PMS3003;52200;53.490;14.376;2023-05-23T06:08:09;19.75;16.75;11.00
65556;PMS3003;52200;53.490;14.376;2023-05-23T06:10:36;20.75;17.00;11.75
65556;PMS3003;52200;53.490;14.376;2023-05-23T06:13:03;18.80;16.00;11.20
65556;PMS3003;52200;53.490;14.376;2023-05-23T06:15:28;23.25;19.25;11.50
65556;PMS3003;52200;53.490;14.376;2023-05-23T06:17:54;20.00;16.75;11.00
65556;PMS3003;52200;53.490;14.376;2023-05-23T06:20:19;19.50;15.50;10.75
65556;PMS3003;52200;53.490;14.376;2023-05-23T06:22:45;21.25;17.00;12.50
65556;PMS3003;52200;53.490;14.376;2023-05-23T06:25:10;20.00;15.50;10.75
65556;PMS3003;52200;53.490;14.376;2023-05-23T06:27:36;21.00;17.80;11.40
65556;PMS3003;52200;53.490;14.376;2023-05-23T06:30:03;21.25;17.00;10.75
65556;PMS3003;52200;53.490;14.376;2023-05-23T06:32:29;21.00;18.00;12.40
65556;PMS3003;52200;53.490;14.376;2023-05-23T06:34:54;23.50;17.00;12.00
65556;PMS3003;52200;53.490;14.376;2023-05-23T06:37:19;23.75;19.00;13.00
65556;PMS3003;52200;53.490;14.376;2023-05-23T06:39:45;22.00;17.00;11.00
65556;PMS3003;52200;53.490;14.376;2023-05-23T06:42:10;23.50;19.00;12.00
65556;PMS3003;52200;53.490;14.376;2023-05-23T06:44:36;23.75;18.00;11.75
65556;PMS3003;52200;53.490;14.376;2023-05-23T06:47:01;21.75;18.75;12.25
65556;PMS3003;52200;53.490;14.376;2023-05-23T06:49:26;24.50;17.25;12.25
65556;PMS3003;52200;53.490;14.376;2023-05-23T06:51:52;20.75;16.50;12.00
65556;PMS3003;52200;53.490;14.376;2023-05-23T06:54:18;24.50;19.00;12.75
65556;PMS3003;52200;53.490;14.376;2023-05-23T06:56:43;23.20;17.40;12.80
65556;PMS3003;52200;53.490;14.376;2023-05-23T06:59:09;22.75;18.25;11.75
65556;PMS3003;52200;53.490;14.376;2023-05-23T07:01:35;21.60;16.80;11.20
65556;PMS3003;52200;53.490;14.376;2023-05-23T07:04:00;22.50;17.25;11.25
65556;PMS3003;52200;53.490;14.376;2023-05-23T07:06:26;21.00;17.75;13.00
65556;PMS3003;52200;53.490;14.376;2023-05-23T07:08:52;26.25;23.00;13.00
65556;PMS3003;52200;53.490;14.376;2023-05-23T07:11:19;28.40;20.60;12.20
65556;PMS3003;52200;53.490;14.376;2023-05-23T07:13:45;43.80;25.80;12.00
65556;PMS3003;52200;53.490;14.376;2023-05-23T07:16:11;21.25;17.00;11.50
65556;PMS3003;52200;53.490;14.376;2023-05-23T07:18:36;20.50;17.00;13.00
65556;PMS3003;52200;53.490;14.376;2023-05-23T07:21:02;19.25;15.25;9.75
65556;PMS3003;52200;53.490;14.376;2023-05-23T07:23:31;25.00;19.75;12.75
65556;PMS3003;52200;53.490;14.376;2023-05-23T07:25:56;23.80;18.20;11.60
65556;PMS3003;52200;53.490;14.376;2023-05-23T07:28:22;20.25;16.50;12.25
65556;PMS3003;52200;53.490;14.376;2023-05-23T07:30:47;20.00;16.75;12.25
65556;PMS3003;52200;53.490;14.376;2023-05-23T07:33:13;24.00;19.75;14.00
65556;PMS3003;52200;53.490;14.376;2023-05-23T07:35:38;24.75;17.75;11.75
65556;PMS3003;52200;53.490;14.376;2023-05-23T07:38:05;23.20;18.60;11.20
65556;PMS3003;52200;53.490;14.376;2023-05-23T07:40:31;21.50;18.00;13.25
65556;PMS3003;52200;53.490;14.376;2023-05-23T07:42:56;27.75;19.75;13.50
65556;PMS3003;52200;53.490;14.376;2023-05-23T07:45:22;24.50;17.75;10.75
65556;PMS3003;52200;53.490;14.376;2023-05-23T07:47:47;22.75;17.75;11.00
65556;PMS3003;52200;53.490;14.376;2023-05-23T07:50:13;22.00;18.00;12.50
65556;PMS3003;52200;53.490;14.376;2023-05-23T07:52:38;22.00;17.75;11.00
65556;PMS3003;52200;53.490;14.376;2023-05-23T07:55:05;24.20;17.60;13.00
65556;PMS3003;52200;53.490;14.376;2023-05-23T07:57:31;23.80;20.00;12.20
65556;PMS3003;52200;53.490;14.376;2023-05-23T07:59:56;22.00;17.00;11.50
65556;PMS3003;52200;53.490;14.376;2023-05-23T08:02:22;22.25;17.75;13.00
65556;PMS3003;52200;53.490;14.376;2023-05-23T08:04:47;23.75;17.50;12.00
65556;PMS3003;52200;53.490;14.376;2023-05-23T08:07:12;26.25;20.50;13.00
65556;PMS3003;52200;53.490;14.376;2023-05-23T08:09:38;20.75;16.00;10.75
65556;PMS3003;52200;53.490;14.376;2023-05-23T08:12:05;23.80;18.80;11.00
65556;PMS3003;52200;53.490;14.376;2023-05-23T08:14:31;21.20;16.80;11.80
65556;PMS3003;52200;53.490;14.376;2023-05-23T08:16:56;23.25;16.75;12.00
65556;PMS3003;52200;53.490;14.376;2023-05-23T08:19:22;19.00;14.75;10.50
65556;PMS3003;52200;53.490;14.376;2023-05-23T08:21:47;24.25;18.75;11.75
65556;PMS3003;52200;53.490;14.376;2023-05-23T08:24:12;19.25;15.00;10.25
65556;PMS3003;52200;53.490;14.376;2023-05-23T08:26:38;22.25;18.25;11.75
65556;PMS3003;52200;53.490;14.376;2023-05-23T08:29:04;20.60;17.00;11.80
65556;PMS3003;52200;53.490;14.376;2023-05-23T08:31:30;19.75;15.00;11.00
65556;PMS3003;52200;53.490;14.376;2023-05-23T08:33:57;20.20;15.20;10.20
65556;PMS3003;52200;53.490;14.376;2023-05-23T08:36:23;23.00;16.00;11.40
65556;PMS3003;52200;53.490;14.376;2023-05-23T08:38:48;23.50;17.00;11.00
65556;PMS3003;52200;53.490;14.376;2023-05-23T08:41:21;20.60;17.20;12.80
65556;PMS3003;52200;53.490;14.376;2023-05-23T08:43:48;22.80;18.00;12.00
65556;PMS3003;52200;53.490;14.376;2023-05-23T08:46:14;21.80;18.00;11.40
65556;PMS3003;52200;53.490;14.376;2023-05-23T08:48:40;20.80;17.80;12.00
65556;PMS3003;52200;53.490;14.376;2023-05-23T08:51:08;21.60;16.80;12.20
65556;PMS3003;52200;53.490;14.376;2023-05-23T08:53:37;23.40;17.40;11.00
65556;PMS3003;52200;53.490;14.376;2023-05-23T08:56:08;19.40;15.00;10.40
65556;PMS3003;52200;53.490;14.376;2023-05-23T08:58:35;22.00;17.20;10.60
65556;PMS3003;52200;53.490;14.376;2023-05-23T09:01:02;22.20;18.00;11.80
65556;PMS3003;52200;53.490;14.376;2023-05-23T09:03:28;19.00;14.25;10.00
65556;PMS3003;52200;53.490;14.376;2023-05-23T09:05:54;24.50;18.00;11.25
65556;PMS3003;52200;53.490;14.376;2023-05-23T09:08:20;20.00;15.20;11.80
65556;PMS3003;52200;53.490;14.376;2023-05-23T09:10:47;19.00;14.00;9.00
65556;PMS3003;52200;53.490;14.376;2023-05-23T09:13:16;22.60;16.20;11.00
65556;PMS3003;52200;53.490;14.376;2023-05-23T09:18:37;21.00;17.40;10.00
65556;PMS3003;52200;53.490;14.376;2023-05-23T09:21:04;20.00;15.20;10.00
65556;PMS3003;52200;53.490;14.376;2023-05-23T09:23:30;22.60;16.60;11.00
65556;PMS3003;52200;53.490;14.376;2023-05-23T09:25:56;33.40;24.00;13.60
65556;PMS3003;52200;53.490;14.376;2023-05-23T09:28:27;32.00;20.20;12.00
65556;PMS3003;52200;53.490;14.376;2023-05-23T09:30:59;24.75;14.75;9.25
65556;PMS3003;52200;53.490;14.376;2023-05-23T09:36:09;22.40;17.00;12.00
65556;PMS3003;52200;53.490;14.376;2023-05-23T09:38:38;19.25;15.25;10.50
65556;PMS3003;52200;53.490;14.376;2023-05-23T09:41:05;24.80;19.60;11.60
65556;PMS3003;52200;53.490;14.376;2023-05-23T09:43:31;20.00;16.00;10.60
65556;PMS3003;52200;53.490;14.376;2023-05-23T09:46:06;19.00;14.75;10.00
65556;PMS3003;52200;53.490;14.376;2023-05-23T09:48:33;17.00;14.40;9.20
65556;PMS3003;52200;53.490;14.376;2023-05-23T09:51:02;21.00;19.00;10.80
65556;PMS3003;52200;53.490;14.376;2023-05-23T09:53:31;22.40;18.80;11.40
65556;PMS3003;52200;53.490;14.376;2023-05-23T09:56:00;19.75;18.00;11.00
65556;PMS3003;52200;53.490;14.376;2023-05-23T09:58:27;17.60;15.60;11.00
65556;PMS3003;52200;53.490;14.376;2023-05-23T10:00:54;21.20;16.00;10.20
65556;PMS3003;52200;53.490;14.376;2023-05-23T10:03:23;18.80;16.20;10.80
65556;PMS3003;52200;53.490;14.376;2023-05-23T10:05:56;21.60;14.80;11.00
65556;PMS3003;52200;53.490;14.376;2023-05-23T10:08:38;22.20;17.20;11.80
65556;PMS3003;52200;53.490;14.376;2023-05-23T10:13:44;24.20;18.40;13.00
65556;PMS3003;52200;53.490;14.376;2023-05-23T10:16:14;20.80;17.20;11.80
65556;PMS3003;52200;53.490;14.376;2023-05-23T10:18:46;21.80;16.80;11.80
65556;PMS3003;52200;53.490;14.376;2023-05-23T10:21:23;21.00;16.00;12.00
65556;PMS3003;52200;53.490;14.376;2023-05-23T10:23:56;20.60;16.60;11.80
65556;PMS3003;52200;53.490;14.376;2023-05-23T10:26:23;21.60;17.60;12.60
65556;PMS3003;52200;53.490;14.376;2023-05-23T10:28:50;21.80;18.60;12.40
65556;PMS3003;52200;53.490;14.376;2023-05-23T10:31:17;23.40;18.80;13.60
65556;PMS3003;52200;53.490;14.376;2023-05-23T10:33:47;23.00;17.80;13.00
65556;PMS3003;52200;53.490;14.376;2023-05-23T10:36:24;20.80;17.80;13.00
65556;PMS3003;52200;53.490;14.376;2023-05-23T10:39:15;27.00;22.00;15.60
65556;PMS3003;52200;53.490;14.376;2023-05-23T10:41:55;22.00;18.20;13.60
65556;PMS3003;52200;53.490;14.376;2023-05-23T10:44:27;24.60;20.80;14.60
65556;PMS3003;52200;53.490;14.376;2023-05-23T10:46:55;25.40;20.80;13.40
65556;PMS3003;52200;53.490;14.376;2023-05-23T10:49:44;27.00;22.00;14.00
65556;PMS3003;52200;53.490;14.376;2023-05-23T10:52:16;27.20;22.80;15.20
65556;PMS3003;52200;53.490;14.376;2023-05-23T10:54:43;26.60;23.00;16.00
65556;PMS3003;52200;53.490;14.376;2023-05-23T10:57:10;25.20;20.80;15.00
65556;PMS3003;52200;53.490;14.376;2023-05-23T10:59:40;28.60;23.60;16.00
65556;PMS3003;52200;53.490;14.376;2023-05-23T11:02:11;29.00;24.40;14.80
65556;PMS3003;52200;53.490;14.376;2023-05-23T11:04:41;27.20;22.00;15.80
65556;PMS3003;52200;53.490;14.376;2023-05-23T11:07:40;26.20;22.20;14.80
65556;PMS3003;52200;53.490;14.376;2023-05-23T11:10:12;25.40;19.60;13.80
65556;PMS3003;52200;53.490;14.376;2023-05-23T11:12:41;26.40;22.40;15.80
65556;PMS3003;52200;53.490;14.376;2023-05-23T11:17:47;24.00;21.00;14.00
65556;PMS3003;52200;53.490;14.376;2023-05-23T11:20:17;29.20;23.20;15.40
65556;PMS3003;52200;53.490;14.376;2023-05-23T11:23:11;24.60;21.00;15.00
65556;PMS3003;52200;53.490;14.376;2023-05-23T11:28:28;28.00;23.00;15.00
65556;PMS3003;52200;53.490;14.376;2023-05-23T11:30:53;27.25;22.25;14.75
65556;PMS3003;52200;53.490;14.376;2023-05-23T11:33:21;26.20;18.60;14.00
65556;PMS3003;52200;53.490;14.376;2023-05-23T11:35:47;25.00;22.50;14.00
65556;PMS3003;52200;53.490;14.376;2023-05-23T11:38:14;23.20;20.60;13.00
65556;PMS3003;52200;53.490;14.376;2023-05-23T11:40:44;23.00;22.20;14.60
65556;PMS3003;52200;53.490;14.376;2023-05-23T11:43:14;27.60;22.80;14.60
65556;PMS3003;52200;53.490;14.376;2023-05-23T11:45:40;24.80;23.60;13.20
65556;PMS3003;52200;53.490;14.376;2023-05-23T11:48:07;27.60;24.60;14.80
65556;PMS3003;52200;53.490;14.376;2023-05-23T11:50:36;24.40;22.80;13.80
65556;PMS3003;52200;53.490;14.376;2023-05-23T11:53:14;22.00;21.20;13.00
65556;PMS3003;52200;53.490;14.376;2023-05-23T11:55:52;23.00;20.40;13.60
65556;PMS3003;52200;53.490;14.376;2023-05-23T11:58:20;21.00;20.00;13.60
65556;PMS3003;52200;53.490;14.376;2023-05-23T12:00:46;19.40;16.80;11.40
65556;PMS3003;52200;53.490;14.376;2023-05-23T12:03:12;20.50;18.00;11.00
65556;PMS3003;52200;53.490;14.376;2023-05-23T12:05:37;17.50;15.75;9.00
65556;PMS3003;52200;53.490;14.376;2023-05-23T12:08:03;16.00;13.75;8.50
65556;PMS3003;52200;53.490;14.376;2023-05-23T12:10:28;17.75;14.00;8.00
65556;PMS3003;52200;53.490;14.376;2023-05-23T12:12:54;17.50;15.00;8.50
65556;PMS3003;52200;53.490;14.376;2023-05-23T12:15:23;15.75;13.25;7.50
65556;PMS3003;52200;53.490;14.376;2023-05-23T12:17:52;12.40;9.00;6.00
65556;PMS3003;52200;53.490;14.376;2023-05-23T12:20:19;18.40;13.20;7.00
65556;PMS3003;52200;53.490;14.376;2023-05-23T12:22:45;16.20;15.00;8.00
65556;PMS3003;52200;53.490;14.376;2023-05-23T12:25:10;17.25;14.00;6.50
65556;PMS3003;52200;53.490;14.376;2023-05-23T12:27:39;15.00;11.75;7.00
65556;PMS3003;52200;53.490;14.376;2023-05-23T12:30:08;15.20;14.20;7.00
65556;PMS3003;52200;53.490;14.376;2023-05-23T12:32:38;11.80;11.40;6.20
65556;PMS3003;52200;53.490;14.376;2023-05-23T12:35:05;13.60;11.80;5.00
65556;PMS3003;52200;53.490;14.376;2023-05-23T12:37:43;13.00;12.20;7.00
65556;PMS3003;52200;53.490;14.376;2023-05-23T12:40:15;14.60;13.40;6.00
65556;PMS3003;52200;53.490;14.376;2023-05-23T12:42:51;14.40;11.20;6.60
65556;PMS3003;52200;53.490;14.376;2023-05-23T12:45:23;13.00;11.40;6.20
65556;PMS3003;52200;53.490;14.376;2023-05-23T12:47:54;13.20;10.80;7.00
65556;PMS3003;52200;53.490;14.376;2023-05-23T12:50:20;15.00;12.50;7.50
65556;PMS3003;52200;53.490;14.376;2023-05-23T12:52:46;12.80;11.60;6.20
65556;PMS3003;52200;53.490;14.376;2023-05-23T12:55:11;14.75;12.00;7.00
65556;PMS3003;52200;53.490;14.376;2023-05-23T12:57:37;12.20;10.40;6.00
65556;PMS3003;52200;53.490;14.376;2023-05-23T13:00:02;14.25;12.50;7.00
65556;PMS3003;52200;53.490;14.376;2023-05-23T13:02:28;16.20;12.40;6.80
65556;PMS3003;52200;53.490;14.376;2023-05-23T13:04:54;16.00;14.00;7.00
65556;PMS3003;52200;53.490;14.376;2023-05-23T13:07:20;14.00;12.50;6.50
65556;PMS3003;52200;53.490;14.376;2023-05-23T13:09:46;16.80;15.80;7.80
65556;PMS3003;52200;53.490;14.376;2023-05-23T13:12:11;16.00;13.75;7.00
65556;PMS3003;52200;53.490;14.376;2023-05-23T13:14:37;16.75;15.75;7.00
65556;PMS3003;52200;53.490;14.376;2023-05-23T13:17:02;13.25;12.75;8.00
65556;PMS3003;52200;53.490;14.376;2023-05-23T13:19:28;14.00;13.00;7.00
65556;PMS3003;52200;53.490;14.376;2023-05-23T13:21:53;13.00;13.00;7.00
65556;PMS3003;52200;53.490;14.376;2023-05-23T13:24:19;13.25;13.25;7.25
65556;PMS3003;52200;53.490;14.376;2023-05-23T13:26:45;13.00;13.00;7.50
65556;PMS3003;52200;53.490;14.376;2023-05-23T13:29:10;15.25;14.00;6.75
65556;PMS3003;52200;53.490;14.376;2023-05-23T13:31:36;14.25;13.50;6.75
65556;PMS3003;52200;53.490;14.376;2023-05-23T13:34:01;15.00;14.25;7.00
65556;PMS3003;52200;53.490;14.376;2023-05-23T13:36:26;13.00;12.00;7.00
65556;PMS3003;52200;53.490;14.376;2023-05-23T13:38:52;13.25;13.25;7.25
65556;PMS3003;52200;53.490;14.376;2023-05-23T13:41:18;13.50;12.50;6.25
65556;PMS3003;52200;53.490;14.376;2023-05-23T13:43:43;12.50;12.25;7.00
65556;PMS3003;52200;53.490;14.376;2023-05-23T13:46:09;13.50;12.75;7.50
65556;PMS3003;52200;53.490;14.376;2023-05-23T13:48:34;14.00;14.00;7.00
65556;PMS3003;52200;53.490;14.376;2023-05-23T13:51:00;13.50;10.75;6.50
65556;PMS3003;52200;53.490;14.376;2023-05-23T13:53:25;14.00;12.00;6.00
65556;PMS3003;52200;53.490;14.376;2023-05-23T13:55:51;13.00;11.75;7.00